Time;durP1;ratioP1;P1;durP2;ratioP2;P2;SDS_P1;SDS_P2;PMS_P1;PMS_P2;Temp;Humidity;BMP_temperature;BMP_pressure;BME280_temperature;BME280_humidity;BME280_pressure;Samples;Min_cycle;Max_cycle;Signal;HPM_P1;HPM_P2
2020/12/03 00:00:39;;;;;;;2.67;0.85;;;14.90;99.90;;;;;;4439090;32;20038;-76
2020/12/03 00:03:29;;;;;;;0.45;0.45;;;14.90;99.90;;;;;;4442053;32;20061;-77
2020/12/03 00:06:16;;;;;;;2.10;0.57;;;;;;;;;;4440061;32;20089;-78
2020/12/03 00:08:56;;;;;;;0.95;0.93;;;14.80;99.90;;;;;;4444555;32;20049;-77
2020/12/03 00:11:27;;;;;;;5.18;0.77;;;14.80;99.90;;;;;;4439941;32;20184;-76
2020/12/03 00:13:56;;;;;;;1.23;0.50;;;14.80;99.90;;;;;;4435134;32;20113;-75
2020/12/03 00:16:29;;;;;;;1.70;0.45;;;14.80;99.90;;;;;;4433430;32;20065;-76
2020/12/03 00:18:58;;;;;;;0.52;0.52;;;14.80;99.90;;;;;;4439768;32;20069;-74
2020/12/03 00:21:44;;;;;;;0.70;0.50;;;14.80;99.90;;;;;;4442275;32;20101;-76
2020/12/03 00:24:16;;;;;;;2.78;0.60;;;14.80;99.90;;;;;;4438169;32;20101;-76
2020/12/03 00:26:44;;;;;;;0.47;0.47;;;14.70;99.90;;;;;;4445552;32;20077;-76
2020/12/03 00:29:14;;;;;;;0.40;0.40;;;14.80;99.90;;;;;;4437729;32;20052;-77
2020/12/03 00:31:42;;;;;;;0.30;0.30;;;14.80;99.90;;;;;;4427027;32;20058;-79
2020/12/03 00:34:12;;;;;;;2.03;0.65;;;14.80;99.90;;;;;;4438317;32;20050;-75
2020/12/03 00:36:41;;;;;;;1.60;0.47;;;14.80;99.90;;;;;;4445335;32;20057;-75
2020/12/03 00:39:13;;;;;;;4.97;0.50;;;14.70;99.90;;;;;;4435999;32;20065;-76
2020/12/03 00:41:50;;;;;;;1.42;0.50;;;14.70;99.90;;;;;;4437806;32;20093;-75
2020/12/03 00:44:20;;;;;;;1.25;0.98;;;14.70;99.90;;;;;;4435063;32;20492;-75
2020/12/03 00:46:50;;;;;;;1.12;0.55;;;14.90;99.90;;;;;;4437287;32;20057;-76
2020/12/03 00:49:18;;;;;;;2.05;0.75;;;14.80;99.90;;;;;;4441114;32;20460;-74
2020/12/03 00:51:51;;;;;;;2.10;0.77;;;14.70;99.90;;;;;;4444917;32;20072;-75
2020/12/03 00:54:22;;;;;;;1.10;0.40;;;14.70;99.90;;;;;;4437009;32;20128;-77
2020/12/03 00:56:51;;;;;;;3.60;0.70;;;14.50;99.90;;;;;;4439165;32;20057;-76
2020/12/03 00:59:20;;;;;;;0.40;0.40;;;14.50;99.90;;;;;;4427108;32;20235;-76
2020/12/03 01:01:48;;;;;;;2.22;0.50;;;14.50;99.90;;;;;;4428123;32;20038;-77
2020/12/03 01:04:16;;;;;;;1.45;0.50;;;14.40;99.90;;;;;;4435008;32;20080;-76
2020/12/03 01:06:45;;;;;;;2.55;0.57;;;14.40;99.90;;;;;;4426884;32;20120;-77
2020/12/03 01:09:14;;;;;;;2.10;0.55;;;14.40;99.90;;;;;;4430714;32;20061;-76
2020/12/03 01:11:42;;;;;;;0.82;0.60;;;14.40;99.90;;;;;;4425192;32;20139;-78
2020/12/03 01:14:10;;;;;;;1.40;0.90;;;14.30;99.90;;;;;;4436225;32;20095;-75
2020/12/03 01:16:39;;;;;;;0.80;0.80;;;14.40;99.90;;;;;;4432110;32;21631;-77
2020/12/03 01:19:07;;;;;;;5.18;0.60;;;14.40;99.90;;;;;;4428505;32;20088;-78
2020/12/03 01:21:35;;;;;;;6.65;0.73;;;14.30;99.90;;;;;;4427603;32;20439;-76
2020/12/03 01:24:04;;;;;;;0.57;0.57;;;14.30;99.90;;;;;;4435619;32;20102;-75
2020/12/03 01:26:32;;;;;;;2.60;1.00;;;14.30;99.90;;;;;;4439700;32;20540;-76
2020/12/03 01:29:00;;;;;;;8.13;0.90;;;14.20;99.90;;;;;;4434290;32;21036;-77
2020/12/03 01:31:31;;;;;;;7.62;1.87;;;14.10;99.90;;;;;;4432901;32;20111;-78
2020/12/03 01:34:00;;;;;;;3.62;3.42;;;14.10;99.90;;;;;;4431372;32;20072;-78
2020/12/03 01:36:28;;;;;;;2.55;0.80;;;14.10;99.90;;;;;;4434874;32;20109;-76
2020/12/03 01:38:56;;;;;;;1.33;0.90;;;14.20;99.90;;;;;;4433023;32;20141;-76
2020/12/03 01:41:25;;;;;;;1.73;0.82;;;14.10;99.90;;;;;;4441753;32;20065;-76
2020/12/03 01:43:54;;;;;;;1.55;1.30;;;14.20;99.90;;;;;;4428905;32;20360;-76
2020/12/03 01:46:22;;;;;;;6.32;1.62;;;14.30;99.90;;;;;;4433182;32;20058;-76
2020/12/03 01:49:03;;;;;;;4.78;1.33;;;14.30;99.90;;;;;;4432343;32;20054;-77
2020/12/03 01:51:39;;;;;;;2.22;0.80;;;14.40;99.90;;;;;;4436787;32;20084;-79
2020/12/03 01:54:10;;;;;;;3.67;1.10;;;14.30;99.90;;;;;;4435226;32;20148;-79
2020/12/03 01:57:03;;;;;;;1.15;0.52;;;14.30;99.90;;;;;;4432482;32;20385;-77
2020/12/03 01:59:41;;;;;;;0.45;0.40;;;14.30;99.90;;;;;;4429582;32;20330;-77
2020/12/03 02:02:13;;;;;;;2.37;0.50;;;14.20;99.90;;;;;;4433632;32;20069;-75
2020/12/03 02:04:42;;;;;;;0.90;0.70;;;14.20;99.90;;;;;;4435988;32;20148;-76
2020/12/03 02:07:13;;;;;;;4.57;0.60;;;14.20;99.90;;;;;;4436887;32;20041;-76
2020/12/03 02:09:41;;;;;;;1.17;0.70;;;14.20;99.90;;;;;;4438772;32;20064;-77
2020/12/03 02:12:09;;;;;;;1.37;0.80;;;14.20;99.90;;;;;;4433850;32;20091;-74
2020/12/03 02:14:37;;;;;;;1.90;1.33;;;14.40;99.90;;;;;;4431315;32;20545;-77
2020/12/03 02:17:06;;;;;;;11.23;10.75;;;14.40;99.90;;;;;;4434819;32;20085;-75
2020/12/03 02:19:34;;;;;;;13.15;12.35;;;14.30;99.90;;;;;;4436086;32;20441;-79
2020/12/03 02:22:08;;;;;;;12.65;11.95;;;14.20;99.90;;;;;;4432354;32;21246;-77
2020/12/03 02:24:40;;;;;;;13.90;13.20;;;14.20;99.90;;;;;;4431852;32;20054;-77
2020/12/03 02:27:11;;;;;;;13.10;12.25;;;14.10;99.90;;;;;;4437229;32;20072;-76
2020/12/03 02:29:40;;;;;;;13.75;12.95;;;14.20;99.90;;;;;;4429194;32;20030;-74
2020/12/03 02:32:08;;;;;;;13.27;12.55;;;14.20;99.90;;;;;;4427490;32;20132;-76
2020/12/03 02:34:36;;;;;;;13.48;12.88;;;14.20;99.90;;;;;;4436747;32;20101;-78
2020/12/03 02:37:06;;;;;;;11.60;10.90;;;14.10;99.90;;;;;;4434650;32;20112;-79
2020/12/03 02:39:36;;;;;;;10.98;10.48;;;14.10;99.90;;;;;;4435393;32;20077;-74
2020/12/03 02:42:07;;;;;;;10.35;9.95;;;14.00;99.90;;;;;;4435311;32;20068;-77
2020/12/03 02:44:39;;;;;;;11.18;6.18;;;14.00;99.90;;;;;;4433985;32;20089;-77
2020/12/03 02:47:08;;;;;;;3.05;1.92;;;14.00;99.90;;;;;;4438606;32;20054;-78
2020/12/03 02:49:41;;;;;;;7.05;6.75;;;14.00;99.90;;;;;;4433510;32;20121;-76
2020/12/03 02:52:19;;;;;;;2.95;2.75;;;14.00;99.90;;;;;;4432602;32;20377;-75
2020/12/03 02:54:48;;;;;;;3.90;3.42;;;14.10;99.90;;;;;;4436475;32;20100;-75
2020/12/03 02:57:18;;;;;;;4.30;3.90;;;14.10;99.90;;;;;;4440251;32;20162;-76
2020/12/03 02:59:46;;;;;;;5.43;5.10;;;14.00;99.90;;;;;;4429923;32;20455;-76
2020/12/03 03:02:15;;;;;;;7.25;6.95;;;14.00;99.90;;;;;;4441303;32;20050;-75
2020/12/03 03:04:44;;;;;;;5.30;4.82;;;14.20;99.90;;;;;;4440130;32;20121;-78
2020/12/03 03:07:12;;;;;;;2.60;2.10;;;14.10;99.90;;;;;;4438861;32;20046;-78
2020/12/03 03:09:40;;;;;;;3.17;2.40;;;14.10;99.90;;;;;;4434926;32;20038;-75
2020/12/03 03:12:08;;;;;;;2.50;2.20;;;14.20;99.90;;;;;;4422642;27;20075;-93
2020/12/03 03:14:37;;;;;;;1.20;1.10;;;14.10;99.90;;;;;;4374982;32;20107;-93
2020/12/03 03:17:05;;;;;;;5.40;1.80;;;14.20;99.90;;;;;;4376718;32;20089;-94
2020/12/03 03:19:33;;;;;;;1.90;1.80;;;14.10;99.90;;;;;;4364535;32;20108;-91
2020/12/03 03:22:01;;;;;;;2.80;2.30;;;14.10;99.90;;;;;;4358776;32;20193;-92
2020/12/03 03:24:29;;;;;;;3.62;1.87;;;14.10;99.90;;;;;;4360015;32;20297;-95
2020/12/03 03:26:57;;;;;;;2.97;2.78;;;14.20;99.90;;;;;;4365120;32;20051;-96
2020/12/03 03:29:26;;;;;;;2.30;2.20;;;14.10;99.90;;;;;;4363220;32;20464;-95
2020/12/03 03:31:55;;;;;;;5.28;2.25;;;14.30;99.90;;;;;;4350642;32;20077;-96
2020/12/03 03:34:23;;;;;;;2.33;2.10;;;14.20;99.90;;;;;;4371574;32;20068;-96
2020/12/03 03:36:52;;;;;;;4.12;2.80;;;14.30;99.90;;;;;;4360946;32;20143;-96
2020/12/03 03:39:24;;;;;;;5.62;5.12;;;14.20;99.90;;;;;;4350973;32;20120;-95
2020/12/03 03:41:54;;;;;;;14.43;13.68;;;14.30;99.90;;;;;;4352740;32;20059;-95
2020/12/03 03:44:23;;;;;;;17.48;16.58;;;14.20;99.90;;;;;;4363302;32;20064;-95
2020/12/03 03:46:51;;;;;;;17.80;17.00;;;14.20;99.90;;;;;;4345804;33;20404;-96
2020/12/03 03:49:19;;;;;;;15.43;14.63;;;14.20;99.90;;;;;;4361424;32;20058;-96
2020/12/03 03:51:48;;;;;;;18.30;17.30;;;14.20;99.90;;;;;;4362277;32;20117;-95
2020/12/03 03:54:16;;;;;;;10.90;10.48;;;14.30;99.90;;;;;;4374879;32;20110;-96
2020/12/03 03:56:44;;;;;;;14.77;14.05;;;14.20;99.90;;;;;;4363207;32;20085;-96
2020/12/03 03:59:12;;;;;;;14.20;13.50;;;14.20;99.90;;;;;;4360106;32;20102;-96
2020/12/03 04:01:40;;;;;;;16.95;16.15;;;14.20;99.90;;;;;;4363447;32;20069;-96
2020/12/03 04:04:09;;;;;;;16.33;15.23;;;14.20;99.90;;;;;;4351365;32;20078;-95
2020/12/03 04:06:37;;;;;;;16.52;15.73;;;14.10;99.90;;;;;;4361995;32;20077;-96
2020/12/03 04:09:05;;;;;;;15.90;15.20;;;14.10;99.90;;;;;;4361891;32;20081;-94
2020/12/03 04:11:34;;;;;;;15.40;14.40;;;14.10;99.90;;;;;;4362023;32;20093;-95
2020/12/03 04:14:02;;;;;;;15.73;14.65;;;14.20;99.90;;;;;;4363504;32;20090;-96
2020/12/03 04:16:30;;;;;;;15.65;14.82;;;14.10;99.90;;;;;;4352952;32;20043;-96
2020/12/03 04:18:58;;;;;;;15.75;14.90;;;14.10;99.90;;;;;;4362112;32;20372;-96
2020/12/03 04:21:26;;;;;;;17.80;16.60;;;14.30;99.90;;;;;;4363414;32;20060;-95
2020/12/03 04:23:54;;;;;;;15.02;13.95;;;14.10;99.90;;;;;;4333820;32;20055;-96
2020/12/03 04:26:22;;;;;;;13.98;13.10;;;14.30;99.90;;;;;;4351837;32;20111;-96
2020/12/03 04:28:50;;;;;;;13.02;12.43;;;14.10;99.90;;;;;;4363377;32;20047;-96
2020/12/03 04:31:18;;;;;;;13.82;13.02;;;14.10;99.90;;;;;;4351229;32;20101;-95
2020/12/03 04:33:46;;;;;;;12.20;11.50;;;14.10;99.90;;;;;;4351303;32;20114;-96
2020/12/03 04:36:15;;;;;;;12.55;11.98;;;14.10;99.90;;;;;;4363631;32;20055;-95
2020/12/03 04:38:43;;;;;;;12.98;12.27;;;14.30;99.90;;;;;;4350883;32;20154;-96
2020/12/03 04:41:12;;;;;;;15.27;14.57;;;14.30;99.90;;;;;;4359959;32;20161;-96
2020/12/03 04:43:55;;;;;;;20.27;19.20;;;14.00;99.90;;;;;;4373108;32;20089;-96
2020/12/03 04:46:29;;;;;;;22.95;21.85;;;14.10;99.90;;;;;;4363255;32;20067;-96
2020/12/03 04:49:03;;;;;;;;;;;14.10;99.90;;;;;;4348429;33;20047;-96
2020/12/03 04:52:21;;;;;;;15.60;14.90;;;14.10;99.90;;;;;;4375323;32;20038;-95
2020/12/03 04:55:21;;;;;;;15.70;14.45;;;14.20;99.90;;;;;;4332772;32;20074;-96
2020/12/03 04:58:03;;;;;;;15.52;14.75;;;14.20;99.90;;;;;;4365451;32;20520;-96
2020/12/03 05:00:43;;;;;;;17.85;17.00;;;14.20;99.90;;;;;;4365261;32;20110;-96
2020/12/03 05:03:33;;;;;;;25.85;24.45;;;14.30;99.90;;;;;;4345768;32;20118;-96
2020/12/03 05:06:13;;;;;;;16.48;15.77;;;14.30;99.90;;;;;;4356675;32;20926;-96
2020/12/03 05:09:18;;;;;;;18.42;17.42;;;14.20;99.90;;;;;;4358411;32;20140;-96
2020/12/03 05:11:58;;;;;;;14.10;13.48;;;14.20;99.90;;;;;;4359684;32;20052;-95
2020/12/03 05:14:43;;;;;;;12.45;11.68;;;14.00;99.90;;;;;;4349973;32;20063;-96
2020/12/03 05:17:29;;;;;;;8.77;8.13;;;14.00;99.90;;;;;;4366654;32;20092;-96
2020/12/03 05:20:23;;;;;;;11.93;11.20;;;14.10;99.90;;;;;;4363010;32;20100;-96
2020/12/03 05:23:16;;;;;;;8.50;8.10;;;14.20;99.90;;;;;;4352416;32;20150;-96
2020/12/03 05:25:48;;;;;;;10.10;9.55;;;14.20;99.90;;;;;;4357978;32;20107;-96
2020/12/03 05:28:22;;;;;;;11.35;10.85;;;14.40;99.90;;;;;;4347558;32;20126;-96
2020/12/03 05:30:55;;;;;;;11.50;10.90;;;14.10;99.90;;;;;;4361125;32;20050;-95
2020/12/03 05:33:24;;;;;;;11.18;10.30;;;14.20;99.90;;;;;;4370333;32;20354;-96
2020/12/03 05:35:52;;;;;;;8.15;7.80;;;14.10;99.90;;;;;;4360883;32;20492;-96
2020/12/03 05:38:23;;;;;;;12.15;11.50;;;14.20;99.90;;;;;;4359820;32;20074;-96
2020/12/03 05:41:03;;;;;;;14.77;13.82;;;14.30;99.90;;;;;;4342025;32;20444;-96
2020/12/03 05:43:33;;;;;;;13.48;12.70;;;14.20;99.90;;;;;;4365840;32;20120;-95
2020/12/03 05:46:04;;;;;;;15.07;14.27;;;14.20;99.90;;;;;;4372570;32;20063;-95
2020/12/03 05:48:32;;;;;;;16.15;15.23;;;14.00;99.90;;;;;;4348942;32;20106;-94
2020/12/03 05:51:16;;;;;;;8.93;8.43;;;13.90;99.90;;;;;;4349683;32;20044;-96
2020/12/03 05:53:54;;;;;;;8.30;7.80;;;13.80;99.90;;;;;;4348387;32;20129;-96
2020/12/03 05:56:24;;;;;;;9.00;8.40;;;13.90;99.90;;;;;;4348367;32;20094;-94
2020/12/03 05:58:53;;;;;;;8.23;7.72;;;13.80;99.90;;;;;;4356997;33;20060;-94
2020/12/03 06:01:25;;;;;;;8.15;7.60;;;13.80;99.90;;;;;;4349835;32;20101;-94
2020/12/03 06:04:19;;;;;;;7.20;6.80;;;13.90;99.90;;;;;;4348701;32;20055;-94
2020/12/03 06:07:16;;;;;;;6.53;6.03;;;14.00;99.90;;;;;;4344831;32;20083;-95
2020/12/03 06:09:59;;;;;;;6.70;6.30;;;13.90;99.90;;;;;;4342808;32;20104;-96
2020/12/03 06:12:46;;;;;;;6.30;5.72;;;13.70;99.90;;;;;;4357739;32;20060;-95
2020/12/03 06:15:39;;;;;;;5.47;5.18;;;13.70;99.90;;;;;;4359451;32;20061;-95
2020/12/03 06:18:35;;;;;;;6.45;6.05;;;13.60;99.90;;;;;;4359477;32;20081;-95
2020/12/03 06:21:09;;;;;;;6.65;6.15;;;13.70;99.90;;;;;;4362386;32;20109;-95
2020/12/03 06:23:49;;;;;;;5.70;5.40;;;13.70;99.90;;;;;;4349814;32;20067;-96
2020/12/03 06:26:23;;;;;;;7.45;7.07;;;13.60;99.90;;;;;;4371814;32;20067;-96
2020/12/03 06:29:06;;;;;;;8.10;7.67;;;13.80;99.90;;;;;;4360678;32;20141;-95
2020/12/03 06:31:57;;;;;;;10.10;9.60;;;13.90;99.90;;;;;;4361438;32;20059;-95
2020/12/03 06:34:50;;;;;;;12.75;12.15;;;13.80;99.90;;;;;;4347266;32;20059;-95
2020/12/03 06:38:03;;;;;;;14.35;13.55;;;13.70;99.90;;;;;;4352315;32;20067;-95
2020/12/03 06:40:38;;;;;;;10.85;10.25;;;13.70;99.90;;;;;;4288074;33;20048;-96
2020/12/03 06:43:50;;;;;;;8.30;7.90;;;13.60;99.90;;;;;;4358970;32;20108;-96
2020/12/03 06:46:45;;;;;;;9.80;8.93;;;13.70;99.90;;;;;;4277236;33;20137;-96
2020/12/03 06:49:37;;;;;;;14.20;12.90;;;13.80;99.90;;;;;;4296980;33;20061;-96
2020/12/03 06:52:36;;;;;;;12.90;11.77;;;13.90;99.90;;;;;;4364031;32;20031;-96
2020/12/03 06:55:33;;;;;;;8.23;7.93;;;13.90;99.90;;;;;;4376425;32;20040;-96
2020/12/03 06:58:06;;;;;;;11.77;11.18;;;14.00;99.90;;;;;;4377651;32;20077;-95
2020/12/03 07:00:56;;;;;;;10.43;10.02;;;14.00;99.90;;;;;;4365090;32;20074;-94
2020/12/03 07:03:24;;;;;;;6.35;5.85;;;13.90;99.90;;;;;;4371355;32;20071;-95
2020/12/03 07:06:17;;;;;;;6.90;6.60;;;14.00;99.90;;;;;;4363909;32;20070;-95
2020/12/03 07:08:48;;;;;;;6.65;4.68;;;14.00;99.90;;;;;;4361004;33;20063;-96
2020/12/03 07:11:50;;;;;;;3.00;2.72;;;14.00;99.90;;;;;;4361109;32;20094;-96
2020/12/03 07:14:56;;;;;;;3.80;3.45;;;14.10;99.90;;;;;;4354289;32;20067;-96
2020/12/03 07:17:50;;;;;;;2.95;2.72;;;14.00;99.90;;;;;;4352913;32;20076;-94
2020/12/03 07:20:59;;;;;;;5.37;4.70;;;14.10;99.90;;;;;;4356778;32;20100;-94
2020/12/03 07:24:05;;;;;;;4.18;3.97;;;14.30;99.90;;;;;;4341409;33;20182;-94
2020/12/03 07:26:48;;;;;;;7.03;3.72;;;14.20;99.90;;;;;;4343001;33;20095;-96
2020/12/03 07:29:43;;;;;;;10.57;10.07;;;14.30;99.90;;;;;;4369710;32;20117;-96
2020/12/03 07:32:56;;;;;;;8.90;8.50;;;14.10;99.90;;;;;;4358573;32;20086;-95
2020/12/03 07:35:46;;;;;;;11.15;10.55;;;13.90;99.90;;;;;;4345563;33;20086;-95
2020/12/03 07:38:41;;;;;;;10.40;9.45;;;14.00;99.90;;;;;;4360022;32;20047;-96
2020/12/03 07:41:19;;;;;;;14.90;13.98;;;14.20;99.90;;;;;;4347283;32;20361;-96
2020/12/03 07:43:47;;;;;;;21.05;19.95;;;14.30;99.90;;;;;;4344952;33;20382;-96
2020/12/03 07:46:37;;;;;;;46.92;44.20;;;14.40;99.90;;;;;;4357139;32;20113;-94
2020/12/03 07:49:06;;;;;;;44.00;41.50;;;14.80;99.90;;;;;;4346822;33;20063;-96
2020/12/03 07:51:34;;;;;;;45.72;43.13;;;15.30;99.90;;;;;;4346946;33;20059;-93
2020/12/03 07:54:18;;;;;;;2.10;1.05;;;15.80;99.90;;;;;;4358365;32;20109;-93
2020/12/03 07:56:48;;;;;;;19.45;18.27;;;16.70;99.90;;;;;;4347665;33;20060;-94
2020/12/03 07:59:37;;;;;;;7.93;7.43;;;;;;;;;;4350146;32;20071;-96
2020/12/03 08:02:27;;;;;;;17.90;17.00;;;;;;;;;;4358152;32;20064;-96
2020/12/03 08:04:55;;;;;;;4.72;1.20;;;20.10;99.90;;;;;;4352135;32;20122;-96
2020/12/03 08:07:27;;;;;;;7.03;6.60;;;20.90;99.90;;;;;;4373183;32;20068;-96
2020/12/03 08:09:56;;;;;;;9.55;8.88;;;21.80;99.90;;;;;;4357640;32;20126;-94
2020/12/03 08:12:26;;;;;;;9.63;9.10;;;23.40;99.90;;;;;;4352493;32;20059;-96
2020/12/03 08:14:56;;;;;;;6.47;6.12;;;24.50;99.90;;;;;;4349202;33;20825;-96
2020/12/03 08:17:27;;;;;;;3.10;2.90;;;25.40;99.90;;;;;;4372163;32;20638;-96
2020/12/03 08:20:06;;;;;;;3.85;3.40;;;26.10;99.90;;;;;;4349608;32;20078;-96
2020/12/03 08:22:40;;;;;;;4.93;4.72;;;27.10;99.90;;;;;;4348005;32;20216;-96
2020/12/03 08:25:16;;;;;;;5.53;5.22;;;27.80;99.70;;;;;;4357893;32;20361;-96
2020/12/03 08:27:58;;;;;;;5.22;5.03;;;28.60;96.70;;;;;;4351901;33;20090;-96
2020/12/03 08:31:01;;;;;;;7.85;7.35;;;28.50;96.00;;;;;;4377411;32;20071;-96
2020/12/03 08:34:20;;;;;;;6.90;6.60;;;29.60;93.90;;;;;;4364919;32;20044;-94
2020/12/03 08:36:48;;;;;;;9.60;9.10;;;30.70;95.90;;;;;;4356968;32;20059;-96
2020/12/03 08:39:19;;;;;;;9.57;9.07;;;32.00;90.50;;;;;;4355779;32;20063;-96
2020/12/03 08:41:49;;;;;;;12.23;11.63;;;32.30;86.80;;;;;;4343859;33;20056;-96
2020/12/03 08:44:17;;;;;;;11.05;10.52;;;32.20;84.50;;;;;;4355636;32;20079;-96
2020/12/03 08:46:46;;;;;;;14.60;13.90;;;32.10;84.60;;;;;;4354569;32;20091;-96
2020/12/03 08:49:26;;;;;;;3.28;0.70;;;32.70;96.30;;;;;;4356286;32;20079;-92
2020/12/03 08:51:58;;;;;;;0.82;0.40;;;;;;;;;;4352509;32;20060;-93
2020/12/03 08:54:31;;;;;;;2.08;1.98;;;28.20;99.90;;;;;;4342639;33;20105;-91
2020/12/03 08:57:13;;;;;;;3.03;0.75;;;27.10;93.70;;;;;;4357257;32;20484;-95
2020/12/03 08:59:48;;;;;;;4.97;0.85;;;24.40;99.00;;;;;;4351626;32;20051;-93
2020/12/03 09:02:19;;;;;;;1.23;0.80;;;23.00;99.90;;;;;;4364406;32;20067;-91
2020/12/03 09:04:55;;;;;;;1.02;0.90;;;22.50;99.90;;;;;;4354890;32;20091;-96
2020/12/03 09:07:27;;;;;;;2.62;2.42;;;22.80;99.90;;;;;;4356001;32;20517;-96
2020/12/03 09:09:57;;;;;;;20.52;19.60;;;24.50;99.90;;;;;;4350171;32;20079;-95
2020/12/03 09:12:29;;;;;;;22.70;21.55;;;;;;;;;;4353968;32;20079;-96
2020/12/03 09:15:04;;;;;;;20.27;19.37;;;;;;;;;;4354727;32;20052;-96
2020/12/03 09:17:34;;;;;;;19.50;18.60;;;;;;;;;;4351834;32;20484;-96
2020/12/03 09:20:10;;;;;;;19.25;18.20;;;;;;;;;;4349997;32;20552;-96
2020/12/03 09:22:40;;;;;;;20.90;19.90;;;36.00;75.90;;;;;;4353778;32;20110;-96
2020/12/03 09:25:11;;;;;;;21.02;19.98;;;36.20;92.80;;;;;;4354122;32;20063;-95
2020/12/03 09:27:48;;;;;;;23.00;21.90;;;37.10;69.70;;;;;;4340969;33;20106;-95
2020/12/03 09:30:20;;;;;;;20.50;19.45;;;37.40;66.70;;;;;;4352972;32;20071;-95
2020/12/03 09:32:51;;;;;;;;;;;38.10;64.70;;;;;;4366333;32;20059;-96
2020/12/03 09:35:20;;;;;;;19.27;18.35;;;39.00;61.10;;;;;;4370415;32;19955;-95
2020/12/03 09:37:49;;;;;;;16.75;15.85;;;38.80;59.00;;;;;;4344314;33;20097;-94
2020/12/03 09:40:18;;;;;;;21.52;20.55;;;39.10;58.80;;;;;;4364150;32;20068;-96
2020/12/03 09:42:49;;;;;;;19.70;18.73;;;;;;;;;;4350617;32;20154;-94
2020/12/03 09:45:22;;;;;;;19.90;18.93;;;40.00;53.80;;;;;;4350947;32;20087;-93
2020/12/03 09:47:51;;;;;;;19.20;18.35;;;40.00;53.80;;;;;;4351359;32;20052;-93
2020/12/03 09:50:23;;;;;;;17.10;16.23;;;40.10;52.00;;;;;;4365437;32;20078;-93
2020/12/03 09:52:53;;;;;;;21.58;20.58;;;39.80;50.30;;;;;;4352238;32;20070;-95
2020/12/03 09:55:22;;;;;;;22.90;21.90;;;40.40;50.60;;;;;;4346064;32;20111;-95
2020/12/03 09:57:56;;;;;;;20.20;19.30;;;40.20;49.00;;;;;;4342419;32;20056;-95
2020/12/03 10:00:30;;;;;;;23.50;22.42;;;40.10;49.10;;;;;;4352701;33;20198;-91
2020/12/03 10:03:23;;;;;;;;;;;40.00;48.30;;;;;;4364059;32;20063;-93
2020/12/03 10:06:04;;;;;;;20.88;19.92;;;39.60;47.90;;;;;;4351635;32;19993;-93
2020/12/03 10:08:42;;;;;;;21.73;20.73;;;38.50;50.20;;;;;;4349079;32;20181;-93
2020/12/03 10:11:28;;;;;;;21.17;20.00;;;36.80;50.50;;;;;;4349520;32;20101;-93
2020/12/03 10:14:20;;;;;;;20.90;19.90;;;37.30;50.90;;;;;;4353023;33;20067;-93
2020/12/03 10:16:51;;;;;;;19.67;18.77;;;36.60;51.10;;;;;;4351885;32;20150;-94
2020/12/03 10:19:22;;;;;;;23.50;22.17;;;36.20;51.20;;;;;;4360535;32;20467;-92
2020/12/03 10:21:55;;;;;;;22.37;21.37;;;36.60;52.00;;;;;;4334675;33;20099;-93
2020/12/03 10:24:27;;;;;;;24.23;23.12;;;36.50;51.70;;;;;;4352115;32;20134;-94
2020/12/03 10:27:26;;;;;;;17.67;16.83;;;37.00;52.10;;;;;;4349223;32;20114;-95
2020/12/03 10:29:59;;;;;;;26.50;25.20;;;37.30;51.10;;;;;;4334270;32;20121;-93
2020/12/03 10:32:28;;;;;;;22.53;21.43;;;;;;;;;;4352485;32;20491;-93
2020/12/03 10:34:57;;;;;;;22.70;21.67;;;38.80;49.40;;;;;;4352119;33;20067;-93
2020/12/03 10:37:25;;;;;;;20.27;19.37;;;39.50;48.40;;;;;;4347739;32;20487;-91
2020/12/03 10:40:09;;;;;;;19.95;19.02;;;38.70;46.60;;;;;;4351001;32;20095;-93
2020/12/03 10:42:41;;;;;;;18.40;17.40;;;38.20;46.70;;;;;;4338340;33;20071;-94
2020/12/03 10:45:16;;;;;;;16.17;15.48;;;38.10;46.90;;;;;;4350504;32;20067;-94
2020/12/03 10:47:49;;;;;;;16.95;16.17;;;38.80;47.20;;;;;;4362342;32;20103;-92
2020/12/03 10:50:19;;;;;;;16.70;15.82;;;39.40;47.10;;;;;;4351121;32;20086;-95
2020/12/03 10:52:48;;;;;;;14.85;14.05;;;38.20;45.80;;;;;;4367800;32;20076;-93
2020/12/03 10:55:19;;;;;;;17.17;16.35;;;38.50;47.30;;;;;;4352201;33;20476;-94
2020/12/03 10:57:57;;;;;;;13.57;12.93;;;38.40;47.30;;;;;;4335209;33;20115;-95
2020/12/03 11:00:28;;;;;;;12.45;11.85;;;38.80;47.40;;;;;;4351549;33;20102;-94
2020/12/03 11:03:03;;;;;;;11.20;10.60;;;38.50;45.90;;;;;;4356153;32;20094;-94
2020/12/03 11:05:32;;;;;;;11.73;11.12;;;38.50;46.10;;;;;;4356690;32;20366;-93
2020/12/03 11:08:01;;;;;;;13.95;13.35;;;37.70;46.70;;;;;;4343820;33;20082;-94
2020/12/03 11:10:31;;;;;;;7.78;7.45;;;37.90;47.60;;;;;;4357098;32;20067;-93
2020/12/03 11:13:01;;;;;;;12.45;11.95;;;36.90;47.00;;;;;;4343072;32;20089;-94
2020/12/03 11:15:29;;;;;;;0.70;0.30;;;37.00;48.30;;;;;;4364623;32;20055;-95
2020/12/03 11:18:21;;;;;;;1.75;0.50;;;35.40;48.20;;;;;;4368152;32;20083;-93
2020/12/03 11:21:04;;;;;;;1.98;1.00;;;32.60;53.60;;;;;;4353187;32;20074;-92
2020/12/03 11:23:43;;;;;;;2.55;2.25;;;29.90;59.10;;;;;;4352100;32;20083;-93
2020/12/03 11:26:12;;;;;;;6.18;5.80;;;;;;;;;;4368998;32;20051;-93
2020/12/03 11:28:40;;;;;;;0.98;0.55;;;31.40;59.30;;;;;;4359153;32;20453;-94
2020/12/03 11:31:31;;;;;;;9.75;9.32;;;28.60;65.00;;;;;;4366459;32;20089;-94
2020/12/03 11:33:59;;;;;;;2.05;1.85;;;29.90;69.20;;;;;;4349390;32;20060;-94
2020/12/03 11:36:49;;;;;;;7.07;6.78;;;28.50;68.00;;;;;;4358229;32;20082;-94
2020/12/03 11:39:17;;;;;;;5.62;5.32;;;30.40;64.00;;;;;;4372732;32;20047;-95
2020/12/03 11:50:18;;;;;;;3.83;3.53;;;;;;;;;;4381340;32;20114;-91
2020/12/03 11:52:48;;;;;;;4.70;4.40;;;;;;;;;;4360242;32;20059;-95
2020/12/03 11:55:17;;;;;;;2.80;2.70;;;;;;;;;;4361592;32;20154;-96
2020/12/03 11:57:46;;;;;;;0.82;0.60;;;32.20;57.00;;;;;;4383028;32;20085;-93
2020/12/03 12:00:21;;;;;;;0.82;0.32;;;29.90;63.60;;;;;;4362567;32;20095;-94
2020/12/03 12:02:52;;;;;;;3.47;3.15;;;27.50;75.20;;;;;;4358799;32;20111;-93
2020/12/03 12:05:41;;;;;;;2.90;2.80;;;27.00;82.00;;;;;;4354271;32;20439;-94
2020/12/03 12:08:36;;;;;;;2.05;1.90;;;;;;;;;;4357362;32;20109;-94
2020/12/03 12:11:28;;;;;;;4.37;4.07;;;29.90;69.90;;;;;;4358609;32;20149;-93
2020/12/03 12:13:56;;;;;;;3.45;3.35;;;30.60;64.60;;;;;;4369758;32;20133;-93
2020/12/03 12:16:24;;;;;;;4.07;3.30;;;32.30;62.60;;;;;;4368941;32;20151;-92
2020/12/03 12:18:54;;;;;;;3.28;3.08;;;33.30;58.20;;;;;;4371146;32;20043;-92
2020/12/03 12:21:22;;;;;;;2.75;2.65;;;33.80;56.20;;;;;;4356970;32;20105;-92
2020/12/03 12:23:50;;;;;;;2.87;2.78;;;33.40;55.90;;;;;;4357444;32;20081;-90
2020/12/03 12:26:18;;;;;;;2.08;1.70;;;33.10;57.60;;;;;;4358054;32;20479;-92
2020/12/03 12:28:47;;;;;;;3.70;1.30;;;32.00;61.40;;;;;;4366335;32;20102;-91
2020/12/03 12:31:18;;;;;;;0.45;0.45;;;;;;;;;;4356686;32;20451;-90
2020/12/03 12:33:47;;;;;;;1.50;0.55;;;;;;;;;;4357810;32;20066;-91
2020/12/03 12:36:15;;;;;;;0.57;0.57;;;26.30;80.10;;;;;;4353048;32;20082;-90
2020/12/03 12:38:44;;;;;;;0.57;0.30;;;25.30;85.70;;;;;;4345115;32;20077;-91
2020/12/03 12:41:12;;;;;;;1.65;0.40;;;24.40;91.50;;;;;;4357815;32;20678;-90
2020/12/03 12:43:40;;;;;;;1.60;0.60;;;23.80;94.90;;;;;;4373079;32;20421;-91
2020/12/03 12:46:09;;;;;;;0.98;0.80;;;24.10;96.90;;;;;;4366074;32;20079;-90
2020/12/03 12:48:37;;;;;;;1.20;0.70;;;24.30;94.70;;;;;;4368794;32;20055;-90
2020/12/03 12:51:06;;;;;;;0.82;0.50;;;24.30;94.50;;;;;;4369125;32;20051;-91
2020/12/03 12:53:34;;;;;;;1.08;0.50;;;24.50;94.60;;;;;;4368239;32;20101;-90
2020/12/03 12:56:03;;;;;;;2.10;0.60;;;24.30;94.20;;;;;;4370070;32;20125;-90
2020/12/03 12:58:31;;;;;;;2.65;0.93;;;24.40;94.40;;;;;;4353846;32;20117;-90
2020/12/03 13:00:59;;;;;;;1.15;0.50;;;24.30;94.10;;;;;;4370337;32;20074;-91
2020/12/03 13:03:28;;;;;;;1.75;0.60;;;24.10;99.90;;;;;;4366956;32;20102;-92
2020/12/03 13:05:56;;;;;;;1.15;0.50;;;24.00;99.90;;;;;;4364590;32;20121;-92
2020/12/03 13:08:25;;;;;;;2.17;0.50;;;23.70;99.30;;;;;;4341887;32;20090;-92
2020/12/03 13:10:54;;;;;;;0.88;0.50;;;;;;;;;;4343239;32;20523;-90
2020/12/03 13:13:28;;;;;;;1.02;0.45;;;;;;;;;;4343131;32;20059;-92
2020/12/03 13:15:57;;;;;;;2.97;0.50;;;;;;;;;;4353965;32;20062;-92
2020/12/03 13:18:26;;;;;;;0.50;0.32;;;;;;;;;;4343220;32;20947;-92
2020/12/03 13:20:54;;;;;;;2.78;0.43;;;;;;;;;;4367213;32;20085;-92
2020/12/03 13:23:23;;;;;;;0.62;0.50;;;22.60;97.90;;;;;;4342568;32;20128;-91
2020/12/03 13:25:50;;;;;;;0.73;0.30;;;22.60;98.20;;;;;;4352996;32;20166;-91
2020/12/03 13:28:18;;;;;;;2.10;0.30;;;22.80;98.00;;;;;;4354368;32;20059;-91
2020/12/03 13:30:47;;;;;;;0.73;0.40;;;23.00;97.40;;;;;;4354035;32;20047;-90
2020/12/03 13:33:15;;;;;;;1.50;0.40;;;22.80;98.30;;;;;;4355291;32;20403;-91
2020/12/03 13:35:43;;;;;;;0.95;0.32;;;22.40;99.10;;;;;;4366296;32;20099;-90